Freeman, Missouri
Current Conditions -  °F | °C
As of 5:53 AM on Saturday 20 Dec 2014 (Local Time) from KOJC Reporting Station
Haze Haze  
Wind Chill: 29°   Ceiling: 1300
Heat Index: 33°   Visibility: 6mi
Dew Point: 31°   Wind: 5mph
Humidity: 92%   Direction: 210°SSW
Pressure: 30.18"   Gusts: NA
Location:  38.62°N, 94.51°W
Report Text: KOJC 201153Z AUTO 21004KT 6SM BR OVC013 01/M01 A3018 RMK AO2 SLP230 T00061006 10006 20006 55001
Loading
Personal Weather Stations






























Interactive Weather Map New forecast layout! Learn more

10-Day Weather Forecast

Advertisements
Track Severe Weather on mobile